sensor_id;sensor_type;location;lat;lon;timestamp;temperature;humidity
70593;DHT22;58294;42.988;20.338;2023-12-04T00:00:50;77.60;2201.60
70593;DHT22;58294;42.988;20.338;2023-12-04T00:03:16;77.60;2201.60
70593;DHT22;58294;42.988;20.338;2023-12-04T00:05:44;77.60;2201.60
70593;DHT22;58294;42.988;20.338;2023-12-04T00:08:10;77.60;2201.60
70593;DHT22;58294;42.988;20.338;2023-12-04T00:10:36;77.70;2201.60
70593;DHT22;58294;42.988;20.338;2023-12-04T00:13:02;77.70;2201.60
70593;DHT22;58294;42.988;20.338;2023-12-04T00:15:28;102.40;2201.60
70593;DHT22;58294;42.988;20.338;2023-12-04T00:17:54;102.40;2227.20
70593;DHT22;58294;42.988;20.338;2023-12-04T00:20:20;102.40;2150.40
70593;DHT22;58294;42.988;20.338;2023-12-04T00:22:45;102.40;2176.00
70593;DHT22;58294;42.988;20.338;2023-12-04T00:25:11;102.40;2176.00
70593;DHT22;58294;42.988;20.338;2023-12-04T00:27:37;102.40;2150.40
70593;DHT22;58294;42.988;20.338;2023-12-04T00:30:03;102.40;2150.40
70593;DHT22;58294;42.988;20.338;2023-12-04T00:32:30;77.70;2124.80
70593;DHT22;58294;42.988;20.338;2023-12-04T00:34:56;77.70;2124.80
70593;DHT22;58294;42.988;20.338;2023-12-04T00:37:21;77.70;2150.40
70593;DHT22;58294;42.988;20.338;2023-12-04T00:39:47;102.40;2176.00
70593;DHT22;58294;42.988;20.338;2023-12-04T00:42:13;102.40;2150.40
70593;DHT22;58294;42.988;20.338;2023-12-04T00:44:39;102.40;2150.40
70593;DHT22;58294;42.988;20.338;2023-12-04T00:47:05;102.40;2150.40
70593;DHT22;58294;42.988;20.338;2023-12-04T00:49:31;102.50;2150.40
70593;DHT22;58294;42.988;20.338;2023-12-04T00:51:57;102.50;2150.40
70593;DHT22;58294;42.988;20.338;2023-12-04T00:54:22;102.50;2124.80
70593;DHT22;58294;42.988;20.338;2023-12-04T00:56:48;102.40;2099.20
70593;DHT22;58294;42.988;20.338;2023-12-04T00:59:14;77.70;2099.20
70593;DHT22;58294;42.988;20.338;2023-12-04T01:01:40;77.70;2099.20
70593;DHT22;58294;42.988;20.338;2023-12-04T01:04:06;77.70;2150.40
70593;DHT22;58294;42.988;20.338;2023-12-04T01:06:31;77.60;2124.80
70593;DHT22;58294;42.988;20.338;2023-12-04T01:08:57;77.50;2099.20
70593;DHT22;58294;42.988;20.338;2023-12-04T01:11:23;77.50;2124.80
70593;DHT22;58294;42.988;20.338;2023-12-04T01:13:49;77.40;2099.20
70593;DHT22;58294;42.988;20.338;2023-12-04T01:16:15;77.30;2099.20
70593;DHT22;58294;42.988;20.338;2023-12-04T01:18:42;77.00;2099.20
70593;DHT22;58294;42.988;20.338;2023-12-04T01:21:08;76.80;2099.20
70593;DHT22;58294;42.988;20.338;2023-12-04T01:23:35;76.90;2150.40
70593;DHT22;58294;42.988;20.338;2023-12-04T01:26:02;77.00;2176.00
70593;DHT22;58294;42.988;20.338;2023-12-04T01:28:28;77.00;2201.60
70593;DHT22;58294;42.988;20.338;2023-12-04T01:30:54;77.10;2201.60
70593;DHT22;58294;42.988;20.338;2023-12-04T01:33:19;77.10;2176.00
70593;DHT22;58294;42.988;20.338;2023-12-04T01:35:45;77.20;2150.40
70593;DHT22;58294;42.988;20.338;2023-12-04T01:38:11;77.20;2176.00
70593;DHT22;58294;42.988;20.338;2023-12-04T01:40:37;77.20;2150.40
70593;DHT22;58294;42.988;20.338;2023-12-04T01:43:02;77.20;2150.40
70593;DHT22;58294;42.988;20.338;2023-12-04T01:45:28;77.10;2150.40
70593;DHT22;58294;42.988;20.338;2023-12-04T01:47:54;77.00;2124.80
70593;DHT22;58294;42.988;20.338;2023-12-04T01:50:20;77.00;2124.80
70593;DHT22;58294;42.988;20.338;2023-12-04T01:52:47;77.00;2150.40
70593;DHT22;58294;42.988;20.338;2023-12-04T01:55:14;77.10;2201.60
70593;DHT22;58294;42.988;20.338;2023-12-04T01:57:40;77.10;2176.00
70593;DHT22;58294;42.988;20.338;2023-12-04T02:00:07;77.10;2150.40
70593;DHT22;58294;42.988;20.338;2023-12-04T02:02:40;77.10;2176.00
70593;DHT22;58294;42.988;20.338;2023-12-04T02:05:10;77.20;2176.00
70593;DHT22;58294;42.988;20.338;2023-12-04T02:07:36;77.20;2176.00
70593;DHT22;58294;42.988;20.338;2023-12-04T02:10:03;77.30;2201.60
70593;DHT22;58294;42.988;20.338;2023-12-04T02:12:29;77.30;2201.60
70593;DHT22;58294;42.988;20.338;2023-12-04T02:14:56;77.40;2201.60
70593;DHT22;58294;42.988;20.338;2023-12-04T02:17:22;77.40;2176.00
70593;DHT22;58294;42.988;20.338;2023-12-04T02:19:48;77.40;2150.40
70593;DHT22;58294;42.988;20.338;2023-12-04T02:22:14;77.40;2124.80
70593;DHT22;58294;42.988;20.338;2023-12-04T02:24:40;77.40;2150.40
70593;DHT22;58294;42.988;20.338;2023-12-04T02:27:15;77.40;2150.40
70593;DHT22;58294;42.988;20.338;2023-12-04T02:29:47;77.40;2150.40
70593;DHT22;58294;42.988;20.338;2023-12-04T02:32:17;77.50;2150.40
70593;DHT22;58294;42.988;20.338;2023-12-04T02:34:45;77.50;2124.80
70593;DHT22;58294;42.988;20.338;2023-12-04T02:37:14;77.50;2150.40
70593;DHT22;58294;42.988;20.338;2023-12-04T02:39:41;77.50;2150.40
70593;DHT22;58294;42.988;20.338;2023-12-04T02:42:07;77.50;2150.40
70593;DHT22;58294;42.988;20.338;2023-12-04T02:44:33;77.50;2150.40
70593;DHT22;58294;42.988;20.338;2023-12-04T02:46:59;77.60;2150.40
70593;DHT22;58294;42.988;20.338;2023-12-04T02:49:25;77.60;2150.40
70593;DHT22;58294;42.988;20.338;2023-12-04T02:51:51;77.60;2150.40
70593;DHT22;58294;42.988;20.338;2023-12-04T02:54:17;77.70;2150.40
70593;DHT22;58294;42.988;20.338;2023-12-04T02:56:42;77.70;2150.40
70593;DHT22;58294;42.988;20.338;2023-12-04T02:59:08;102.40;2150.40
70593;DHT22;58294;42.988;20.338;2023-12-04T03:01:34;102.40;2150.40
70593;DHT22;58294;42.988;20.338;2023-12-04T03:04:00;102.40;2150.40
70593;DHT22;58294;42.988;20.338;2023-12-04T03:06:25;102.50;2124.80
70593;DHT22;58294;42.988;20.338;2023-12-04T03:08:51;102.50;2124.80
70593;DHT22;58294;42.988;20.338;2023-12-04T03:11:17;102.50;2124.80
70593;DHT22;58294;42.988;20.338;2023-12-04T03:13:43;102.50;2124.80
70593;DHT22;58294;42.988;20.338;2023-12-04T03:16:17;102.50;2099.20
70593;DHT22;58294;42.988;20.338;2023-12-04T03:18:43;102.50;2124.80
70593;DHT22;58294;42.988;20.338;2023-12-04T03:21:09;102.60;2124.80
70593;DHT22;58294;42.988;20.338;2023-12-04T03:23:35;102.60;2124.80
70593;DHT22;58294;42.988;20.338;2023-12-04T03:26:01;102.60;2073.60
70593;DHT22;58294;42.988;20.338;2023-12-04T03:28:26;102.50;2073.60
70593;DHT22;58294;42.988;20.338;2023-12-04T03:30:52;102.40;2048.00
70593;DHT22;58294;42.988;20.338;2023-12-04T03:33:18;102.40;2073.60
70593;DHT22;58294;42.988;20.338;2023-12-04T03:35:44;102.40;2073.60
70593;DHT22;58294;42.988;20.338;2023-12-04T03:38:10;77.70;2099.20
70593;DHT22;58294;42.988;20.338;2023-12-04T03:40:35;102.40;2124.80
70593;DHT22;58294;42.988;20.338;2023-12-04T03:43:01;102.40;2099.20
70593;DHT22;58294;42.988;20.338;2023-12-04T03:45:27;102.40;2124.80
70593;DHT22;58294;42.988;20.338;2023-12-04T03:47:53;102.40;2099.20
70593;DHT22;58294;42.988;20.338;2023-12-04T03:50:19;102.40;2099.20
70593;DHT22;58294;42.988;20.338;2023-12-04T03:52:44;102.50;2124.80
70593;DHT22;58294;42.988;20.338;2023-12-04T03:55:10;102.50;2099.20
70593;DHT22;58294;42.988;20.338;2023-12-04T03:57:36;102.50;2099.20
70593;DHT22;58294;42.988;20.338;2023-12-04T04:00:03;102.50;2099.20
70593;DHT22;58294;42.988;20.338;2023-12-04T04:02:29;102.60;2099.20
70593;DHT22;58294;42.988;20.338;2023-12-04T04:04:54;102.50;2073.60
70593;DHT22;58294;42.988;20.338;2023-12-04T04:07:20;102.40;2022.40
70593;DHT22;58294;42.988;20.338;2023-12-04T04:09:46;102.40;2048.00
70593;DHT22;58294;42.988;20.338;2023-12-04T04:12:12;77.70;2048.00
70593;DHT22;58294;42.988;20.338;2023-12-04T04:14:38;77.70;2048.00
70593;DHT22;58294;42.988;20.338;2023-12-04T04:17:03;77.70;2073.60
70593;DHT22;58294;42.988;20.338;2023-12-04T04:19:29;77.70;2099.20
70593;DHT22;58294;42.988;20.338;2023-12-04T04:21:55;102.40;2124.80
70593;DHT22;58294;42.988;20.338;2023-12-04T04:24:21;77.70;2073.60
70593;DHT22;58294;42.988;20.338;2023-12-04T04:26:47;77.70;2073.60
70593;DHT22;58294;42.988;20.338;2023-12-04T04:29:13;77.60;2048.00
70593;DHT22;58294;42.988;20.338;2023-12-04T04:31:38;77.50;2022.40
70593;DHT22;58294;42.988;20.338;2023-12-04T04:34:04;77.40;2022.40
70593;DHT22;58294;42.988;20.338;2023-12-04T04:36:30;77.30;2048.00
70593;DHT22;58294;42.988;20.338;2023-12-04T04:38:56;77.40;2073.60
70593;DHT22;58294;42.988;20.338;2023-12-04T04:41:22;77.40;2099.20
70593;DHT22;58294;42.988;20.338;2023-12-04T04:43:48;77.40;2099.20
70593;DHT22;58294;42.988;20.338;2023-12-04T04:46:14;77.40;2073.60
70593;DHT22;58294;42.988;20.338;2023-12-04T04:48:40;77.40;2099.20
70593;DHT22;58294;42.988;20.338;2023-12-04T04:51:06;77.40;2073.60
70593;DHT22;58294;42.988;20.338;2023-12-04T04:53:32;77.40;2099.20
70593;DHT22;58294;42.988;20.338;2023-12-04T04:55:59;77.40;2073.60
70593;DHT22;58294;42.988;20.338;2023-12-04T04:58:25;77.30;2048.00
70593;DHT22;58294;42.988;20.338;2023-12-04T05:00:51;77.20;2048.00
70593;DHT22;58294;42.988;20.338;2023-12-04T05:03:17;77.10;2048.00
70593;DHT22;58294;42.988;20.338;2023-12-04T05:05:42;77.10;2073.60
70593;DHT22;58294;42.988;20.338;2023-12-04T05:08:08;77.00;2099.20
70593;DHT22;58294;42.988;20.338;2023-12-04T05:10:34;77.10;2124.80
70593;DHT22;58294;42.988;20.338;2023-12-04T05:13:00;77.20;2150.40
70593;DHT22;58294;42.988;20.338;2023-12-04T05:15:25;77.30;2150.40
70593;DHT22;58294;42.988;20.338;2023-12-04T05:17:51;77.30;2124.80
70593;DHT22;58294;42.988;20.338;2023-12-04T05:20:17;77.40;2124.80
70593;DHT22;58294;42.988;20.338;2023-12-04T05:22:43;77.40;2124.80
70593;DHT22;58294;42.988;20.338;2023-12-04T05:25:09;77.50;2124.80
70593;DHT22;58294;42.988;20.338;2023-12-04T05:27:35;77.50;2124.80
70593;DHT22;58294;42.988;20.338;2023-12-04T05:30:00;77.50;2124.80
70593;DHT22;58294;42.988;20.338;2023-12-04T05:32:26;77.60;2124.80
70593;DHT22;58294;42.988;20.338;2023-12-04T05:34:52;77.60;2099.20
70593;DHT22;58294;42.988;20.338;2023-12-04T05:37:18;77.60;2124.80
70593;DHT22;58294;42.988;20.338;2023-12-04T05:39:43;77.70;2124.80
70593;DHT22;58294;42.988;20.338;2023-12-04T05:42:09;77.70;2124.80
70593;DHT22;58294;42.988;20.338;2023-12-04T05:44:35;77.70;2150.40
70593;DHT22;58294;42.988;20.338;2023-12-04T05:47:01;102.40;2124.80
70593;DHT22;58294;42.988;20.338;2023-12-04T05:49:26;102.40;2124.80
70593;DHT22;58294;42.988;20.338;2023-12-04T05:51:54;102.40;2124.80
70593;DHT22;58294;42.988;20.338;2023-12-04T05:54:21;102.50;2124.80
70593;DHT22;58294;42.988;20.338;2023-12-04T05:56:47;102.50;2124.80
70593;DHT22;58294;42.988;20.338;2023-12-04T05:59:13;102.50;2099.20
70593;DHT22;58294;42.988;20.338;2023-12-04T06:01:38;102.50;2099.20
70593;DHT22;58294;42.988;20.338;2023-12-04T06:04:04;102.50;2099.20
70593;DHT22;58294;42.988;20.338;2023-12-04T06:06:30;102.50;2099.20
70593;DHT22;58294;42.988;20.338;2023-12-04T06:08:56;102.50;2099.20
70593;DHT22;58294;42.988;20.338;2023-12-04T06:11:21;102.50;2099.20
70593;DHT22;58294;42.988;20.338;2023-12-04T06:13:47;102.50;2073.60
70593;DHT22;58294;42.988;20.338;2023-12-04T06:16:13;102.50;2073.60
70593;DHT22;58294;42.988;20.338;2023-12-04T06:18:39;102.50;2048.00
70593;DHT22;58294;42.988;20.338;2023-12-04T06:21:05;102.50;2073.60
70593;DHT22;58294;42.988;20.338;2023-12-04T06:23:31;102.50;2099.20
70593;DHT22;58294;42.988;20.338;2023-12-04T06:25:58;102.50;2073.60
70593;DHT22;58294;42.988;20.338;2023-12-04T06:28:24;102.50;2073.60
70593;DHT22;58294;42.988;20.338;2023-12-04T06:30:50;102.50;2073.60
70593;DHT22;58294;42.988;20.338;2023-12-04T06:33:16;102.50;2073.60
70593;DHT22;58294;42.988;20.338;2023-12-04T06:35:44;102.60;2099.20
70593;DHT22;58294;42.988;20.338;2023-12-04T06:38:14;102.60;2073.60
70593;DHT22;58294;42.988;20.338;2023-12-04T06:40:41;102.60;2099.20
70593;DHT22;58294;42.988;20.338;2023-12-04T06:43:07;102.60;2073.60
70593;DHT22;58294;42.988;20.338;2023-12-04T06:45:34;102.60;2073.60
70593;DHT22;58294;42.988;20.338;2023-12-04T06:48:00;102.60;2073.60
70593;DHT22;58294;42.988;20.338;2023-12-04T06:50:26;102.50;2048.00
70593;DHT22;58294;42.988;20.338;2023-12-04T06:52:52;102.50;2048.00
70593;DHT22;58294;42.988;20.338;2023-12-04T06:55:18;102.60;2073.60
70593;DHT22;58294;42.988;20.338;2023-12-04T06:57:44;102.60;2099.20
70593;DHT22;58294;42.988;20.338;2023-12-04T07:00:11;102.60;2073.60
70593;DHT22;58294;42.988;20.338;2023-12-04T07:02:40;102.70;2099.20
70593;DHT22;58294;42.988;20.338;2023-12-04T07:05:06;102.70;2073.60
70593;DHT22;58294;42.988;20.338;2023-12-04T07:07:32;102.70;2048.00
70593;DHT22;58294;42.988;20.338;2023-12-04T07:09:58;102.80;2073.60
70593;DHT22;58294;42.988;20.338;2023-12-04T07:12:24;102.80;2073.60
70593;DHT22;58294;42.988;20.338;2023-12-04T07:14:50;102.80;2073.60
70593;DHT22;58294;42.988;20.338;2023-12-04T07:17:16;102.80;2048.00
70593;DHT22;58294;42.988;20.338;2023-12-04T07:19:42;102.90;2048.00
70593;DHT22;58294;42.988;20.338;2023-12-04T07:22:08;102.90;2048.00
70593;DHT22;58294;42.988;20.338;2023-12-04T07:24:33;102.90;2048.00
70593;DHT22;58294;42.988;20.338;2023-12-04T07:26:59;102.90;2048.00
70593;DHT22;58294;42.988;20.338;2023-12-04T07:29:25;102.80;2048.00
70593;DHT22;58294;42.988;20.338;2023-12-04T07:31:51;102.80;2022.40
70593;DHT22;58294;42.988;20.338;2023-12-04T07:34:17;102.80;2022.40
70593;DHT22;58294;42.988;20.338;2023-12-04T07:36:42;102.80;2048.00
70593;DHT22;58294;42.988;20.338;2023-12-04T07:39:10;102.90;2048.00
70593;DHT22;58294;42.988;20.338;2023-12-04T07:41:36;102.90;2048.00
70593;DHT22;58294;42.988;20.338;2023-12-04T07:44:02;102.90;2022.40
70593;DHT22;58294;42.988;20.338;2023-12-04T07:46:29;102.90;2022.40
70593;DHT22;58294;42.988;20.338;2023-12-04T07:48:55;102.80;2022.40
70593;DHT22;58294;42.988;20.338;2023-12-04T07:51:21;102.80;2022.40
70593;DHT22;58294;42.988;20.338;2023-12-04T07:53:47;102.80;1996.80
70593;DHT22;58294;42.988;20.338;2023-12-04T07:56:13;102.70;1996.80
70593;DHT22;58294;42.988;20.338;2023-12-04T07:58:39;102.70;2022.40
70593;DHT22;58294;42.988;20.338;2023-12-04T08:01:05;102.80;2022.40
70593;DHT22;58294;42.988;20.338;2023-12-04T08:03:31;102.80;2022.40
70593;DHT22;58294;42.988;20.338;2023-12-04T08:05:57;102.80;2048.00
70593;DHT22;58294;42.988;20.338;2023-12-04T08:08:24;102.90;2048.00
70593;DHT22;58294;42.988;20.338;2023-12-04T08:10:50;102.90;2022.40
70593;DHT22;58294;42.988;20.338;2023-12-04T08:13:16;102.90;2022.40
70593;DHT22;58294;42.988;20.338;2023-12-04T08:15:43;103.00;2048.00
70593;DHT22;58294;42.988;20.338;2023-12-04T08:18:09;103.00;2022.40
70593;DHT22;58294;42.988;20.338;2023-12-04T08:20:35;103.10;2022.40
70593;DHT22;58294;42.988;20.338;2023-12-04T08:23:00;103.10;2022.40
70593;DHT22;58294;42.988;20.338;2023-12-04T08:25:26;103.10;2022.40
70593;DHT22;58294;42.988;20.338;2023-12-04T08:27:52;103.10;1996.80
70593;DHT22;58294;42.988;20.338;2023-12-04T08:30:18;103.00;1996.80
70593;DHT22;58294;42.988;20.338;2023-12-04T08:32:44;103.00;1996.80
70593;DHT22;58294;42.988;20.338;2023-12-04T08:35:10;103.10;2022.40
70593;DHT22;58294;42.988;20.338;2023-12-04T08:37:35;103.00;1971.20
70593;DHT22;58294;42.988;20.338;2023-12-04T08:40:01;103.00;1996.80
70593;DHT22;58294;42.988;20.338;2023-12-04T08:42:29;103.10;1996.80
70593;DHT22;58294;42.988;20.338;2023-12-04T08:44:55;103.10;2022.40
70593;DHT22;58294;42.988;20.338;2023-12-04T08:47:20;103.00;1971.20
70593;DHT22;58294;42.988;20.338;2023-12-04T08:49:46;103.00;1971.20
70593;DHT22;58294;42.988;20.338;2023-12-04T08:52:12;102.90;1971.20
70593;DHT22;58294;42.988;20.338;2023-12-04T08:54:41;102.90;1971.20
70593;DHT22;58294;42.988;20.338;2023-12-04T08:57:07;102.90;2022.40
70593;DHT22;58294;42.988;20.338;2023-12-04T08:59:34;103.00;2022.40
70593;DHT22;58294;42.988;20.338;2023-12-04T09:02:00;103.10;2022.40
70593;DHT22;58294;42.988;20.338;2023-12-04T09:04:30;103.10;2022.40
70593;DHT22;58294;42.988;20.338;2023-12-04T09:06:56;103.10;1971.20
70593;DHT22;58294;42.988;20.338;2023-12-04T09:09:22;102.90;1945.60
70593;DHT22;58294;42.988;20.338;2023-12-04T09:11:48;102.90;1971.20
70593;DHT22;58294;42.988;20.338;2023-12-04T09:14:14;102.80;1971.20
70593;DHT22;58294;42.988;20.338;2023-12-04T09:16:40;102.80;1971.20
70593;DHT22;58294;42.988;20.338;2023-12-04T09:19:05;102.90;2022.40
70593;DHT22;58294;42.988;20.338;2023-12-04T09:21:31;103.00;2022.40
70593;DHT22;58294;42.988;20.338;2023-12-04T09:23:57;103.10;2022.40
70593;DHT22;58294;42.988;20.338;2023-12-04T09:26:23;103.10;1996.80
70593;DHT22;58294;42.988;20.338;2023-12-04T09:28:49;103.20;2022.40
70593;DHT22;58294;42.988;20.338;2023-12-04T09:31:15;103.20;1996.80
70593;DHT22;58294;42.988;20.338;2023-12-04T09:33:42;103.30;1996.80
70593;DHT22;58294;42.988;20.338;2023-12-04T09:36:08;128.00;2022.40
70593;DHT22;58294;42.988;20.338;2023-12-04T09:38:34;128.00;2048.00
70593;DHT22;58294;42.988;20.338;2023-12-04T09:41:02;128.10;2022.40
70593;DHT22;58294;42.988;20.338;2023-12-04T09:43:31;128.20;2022.40
70593;DHT22;58294;42.988;20.338;2023-12-04T09:45:58;128.20;2022.40
70593;DHT22;58294;42.988;20.338;2023-12-04T09:48:26;128.20;1996.80
70593;DHT22;58294;42.988;20.338;2023-12-04T09:50:52;128.20;1971.20
70593;DHT22;58294;42.988;20.338;2023-12-04T09:53:19;128.30;1971.20
70593;DHT22;58294;42.988;20.338;2023-12-04T09:55:49;128.30;1868.80
70593;DHT22;58294;42.988;20.338;2023-12-04T09:58:15;128.10;1920.00
70593;DHT22;58294;42.988;20.338;2023-12-04T10:00:44;128.20;1971.20
70593;DHT22;58294;42.988;20.338;2023-12-04T10:03:11;128.20;1945.60
70593;DHT22;58294;42.988;20.338;2023-12-04T10:05:38;128.10;1920.00
70593;DHT22;58294;42.988;20.338;2023-12-04T10:08:07;128.10;1971.20
70593;DHT22;58294;42.988;20.338;2023-12-04T10:10:33;128.10;1894.40
70593;DHT22;58294;42.988;20.338;2023-12-04T10:13:00;128.00;1971.20
70593;DHT22;58294;42.988;20.338;2023-12-04T10:15:26;128.00;1945.60
70593;DHT22;58294;42.988;20.338;2023-12-04T10:17:52;128.10;1996.80
70593;DHT22;58294;42.988;20.338;2023-12-04T10:20:21;128.20;1996.80
70593;DHT22;58294;42.988;20.338;2023-12-04T10:23:00;128.30;1996.80
70593;DHT22;58294;42.988;20.338;2023-12-04T10:25:28;128.40;1971.20
70593;DHT22;58294;42.988;20.338;2023-12-04T10:28:08;128.40;1971.20
70593;DHT22;58294;42.988;20.338;2023-12-04T10:30:34;128.40;1971.20
70593;DHT22;58294;42.988;20.338;2023-12-04T10:33:03;128.40;1971.20
70593;DHT22;58294;42.988;20.338;2023-12-04T10:35:34;128.50;1945.60
70593;DHT22;58294;42.988;20.338;2023-12-04T10:38:05;128.40;1945.60
70593;DHT22;58294;42.988;20.338;2023-12-04T10:40:36;128.50;1920.00
70593;DHT22;58294;42.988;20.338;2023-12-04T10:43:22;128.30;1843.20
70593;DHT22;58294;42.988;20.338;2023-12-04T10:45:48;128.40;1971.20
70593;DHT22;58294;42.988;20.338;2023-12-04T10:48:16;128.40;1971.20
70593;DHT22;58294;42.988;20.338;2023-12-04T10:50:46;128.40;1920.00
70593;DHT22;58294;42.988;20.338;2023-12-04T10:53:16;128.30;1817.60
70593;DHT22;58294;42.988;20.338;2023-12-04T10:55:43;128.10;1894.40
70593;DHT22;58294;42.988;20.338;2023-12-04T10:58:14;128.10;1920.00
70593;DHT22;58294;42.988;20.338;2023-12-04T11:00:47;128.20;1971.20
70593;DHT22;58294;42.988;20.338;2023-12-04T11:03:20;128.20;1971.20
70593;DHT22;58294;42.988;20.338;2023-12-04T11:06:00;128.30;1996.80
70593;DHT22;58294;42.988;20.338;2023-12-04T11:08:28;128.30;1971.20
70593;DHT22;58294;42.988;20.338;2023-12-04T11:11:14;128.30;1971.20
70593;DHT22;58294;42.988;20.338;2023-12-04T11:13:42;128.40;1945.60
70593;DHT22;58294;42.988;20.338;2023-12-04T11:18:51;128.10;1971.20
70593;DHT22;58294;42.988;20.338;2023-12-04T11:21:18;128.10;1945.60
70593;DHT22;58294;42.988;20.338;2023-12-04T11:23:45;128.20;1971.20
70593;DHT22;58294;42.988;20.338;2023-12-04T11:26:11;128.20;1945.60
70593;DHT22;58294;42.988;20.338;2023-12-04T11:28:37;128.30;1945.60
70593;DHT22;58294;42.988;20.338;2023-12-04T11:31:04;128.20;1920.00
70593;DHT22;58294;42.988;20.338;2023-12-04T11:33:37;128.20;1945.60
70593;DHT22;58294;42.988;20.338;2023-12-04T11:36:11;128.20;1945.60
70593;DHT22;58294;42.988;20.338;2023-12-04T11:38:38;128.20;1945.60
70593;DHT22;58294;42.988;20.338;2023-12-04T11:41:16;128.10;1920.00
70593;DHT22;58294;42.988;20.338;2023-12-04T11:43:44;128.10;1920.00
70593;DHT22;58294;42.988;20.338;2023-12-04T11:46:11;128.10;1945.60
70593;DHT22;58294;42.988;20.338;2023-12-04T11:48:40;128.10;1945.60
70593;DHT22;58294;42.988;20.338;2023-12-04T11:51:06;128.10;1971.20
70593;DHT22;58294;42.988;20.338;2023-12-04T11:53:38;128.10;1920.00
70593;DHT22;58294;42.988;20.338;2023-12-04T11:56:10;128.10;1945.60
70593;DHT22;58294;42.988;20.338;2023-12-04T11:58:44;128.10;1920.00
70593;DHT22;58294;42.988;20.338;2023-12-04T12:01:10;128.00;1920.00
70593;DHT22;58294;42.988;20.338;2023-12-04T12:03:36;128.00;1920.00
70593;DHT22;58294;42.988;20.338;2023-12-04T12:06:02;128.00;1920.00
70593;DHT22;58294;42.988;20.338;2023-12-04T12:08:29;128.00;1945.60
70593;DHT22;58294;42.988;20.338;2023-12-04T12:10:55;128.00;1868.80
70593;DHT22;58294;42.988;20.338;2023-12-04T12:13:22;103.30;1843.20
70593;DHT22;58294;42.988;20.338;2023-12-04T12:15:50;103.20;1920.00
70593;DHT22;58294;42.988;20.338;2023-12-04T12:18:16;103.20;1920.00
70593;DHT22;58294;42.988;20.338;2023-12-04T12:20:42;103.20;1894.40
70593;DHT22;58294;42.988;20.338;2023-12-04T12:23:08;103.30;1894.40
70593;DHT22;58294;42.988;20.338;2023-12-04T12:25:35;103.30;1894.40
70593;DHT22;58294;42.988;20.338;2023-12-04T12:28:05;103.30;1945.60
70593;DHT22;58294;42.988;20.338;2023-12-04T12:30:30;128.00;1945.60
70593;DHT22;58294;42.988;20.338;2023-12-04T12:32:56;103.30;1894.40
70593;DHT22;58294;42.988;20.338;2023-12-04T12:35:23;128.00;1996.80
70593;DHT22;58294;42.988;20.338;2023-12-04T12:37:50;128.10;1920.00
70593;DHT22;58294;42.988;20.338;2023-12-04T12:40:22;128.00;1945.60
70593;DHT22;58294;42.988;20.338;2023-12-04T12:42:48;128.00;1920.00
70593;DHT22;58294;42.988;20.338;2023-12-04T12:45:14;128.00;1920.00
70593;DHT22;58294;42.988;20.338;2023-12-04T12:47:43;103.30;1920.00
70593;DHT22;58294;42.988;20.338;2023-12-04T12:50:09;103.30;1920.00
70593;DHT22;58294;42.988;20.338;2023-12-04T12:52:39;103.30;1843.20
70593;DHT22;58294;42.988;20.338;2023-12-04T12:55:06;103.20;1920.00
70593;DHT22;58294;42.988;20.338;2023-12-04T12:57:32;103.30;1945.60
70593;DHT22;58294;42.988;20.338;2023-12-04T12:59:58;128.00;1996.80
70593;DHT22;58294;42.988;20.338;2023-12-04T13:02:24;128.00;1996.80
70593;DHT22;58294;42.988;20.338;2023-12-04T13:04:50;128.20;1996.80
70593;DHT22;58294;42.988;20.338;2023-12-04T13:07:16;128.20;1945.60
70593;DHT22;58294;42.988;20.338;2023-12-04T13:09:44;128.10;1894.40
70593;DHT22;58294;42.988;20.338;2023-12-04T13:12:09;128.10;1971.20
70593;DHT22;58294;42.988;20.338;2023-12-04T13:14:36;128.20;1971.20
70593;DHT22;58294;42.988;20.338;2023-12-04T13:17:03;128.20;1945.60
70593;DHT22;58294;42.988;20.338;2023-12-04T13:19:29;128.20;1920.00
70593;DHT22;58294;42.988;20.338;2023-12-04T13:21:57;128.20;1971.20
70593;DHT22;58294;42.988;20.338;2023-12-04T13:24:23;128.30;1971.20
70593;DHT22;58294;42.988;20.338;2023-12-04T13:26:48;128.30;1894.40
70593;DHT22;58294;42.988;20.338;2023-12-04T13:29:14;128.20;1868.80
70593;DHT22;58294;42.988;20.338;2023-12-04T13:31:41;128.10;1894.40
70593;DHT22;58294;42.988;20.338;2023-12-04T13:34:07;128.10;1920.00
70593;DHT22;58294;42.988;20.338;2023-12-04T13:36:34;128.10;1945.60
70593;DHT22;58294;42.988;20.338;2023-12-04T13:39:01;128.10;1920.00
70593;DHT22;58294;42.988;20.338;2023-12-04T13:41:32;128.10;1945.60
70593;DHT22;58294;42.988;20.338;2023-12-04T13:44:16;128.10;1945.60
70593;DHT22;58294;42.988;20.338;2023-12-04T13:46:42;128.20;1971.20
70593;DHT22;58294;42.988;20.338;2023-12-04T13:49:08;128.20;1945.60
70593;DHT22;58294;42.988;20.338;2023-12-04T13:51:35;128.10;1945.60
70593;DHT22;58294;42.988;20.338;2023-12-04T13:54:05;128.10;1945.60
70593;DHT22;58294;42.988;20.338;2023-12-04T13:56:45;128.20;1945.60
70593;DHT22;58294;42.988;20.338;2023-12-04T13:59:19;128.10;1894.40
70593;DHT22;58294;42.988;20.338;2023-12-04T14:01:46;128.10;1945.60
70593;DHT22;58294;42.988;20.338;2023-12-04T14:04:12;128.20;1920.00
70593;DHT22;58294;42.988;20.338;2023-12-04T14:06:38;128.20;1945.60
70593;DHT22;58294;42.988;20.338;2023-12-04T14:09:04;128.10;1945.60
70593;DHT22;58294;42.988;20.338;2023-12-04T14:11:39;128.10;1945.60
70593;DHT22;58294;42.988;20.338;2023-12-04T14:14:05;128.20;1920.00
70593;DHT22;58294;42.988;20.338;2023-12-04T14:16:31;128.10;1894.40
70593;DHT22;58294;42.988;20.338;2023-12-04T14:18:57;128.00;1920.00
70593;DHT22;58294;42.988;20.338;2023-12-04T14:21:23;103.30;1817.60
70593;DHT22;58294;42.988;20.338;2023-12-04T14:23:48;103.10;1843.20
70593;DHT22;58294;42.988;20.338;2023-12-04T14:26:15;103.10;1843.20
70593;DHT22;58294;42.988;20.338;2023-12-04T14:28:41;103.00;1868.80
70593;DHT22;58294;42.988;20.338;2023-12-04T14:31:07;103.00;1894.40
70593;DHT22;58294;42.988;20.338;2023-12-04T14:33:33;102.90;1894.40
70593;DHT22;58294;42.988;20.338;2023-12-04T14:35:59;102.90;1868.80
70593;DHT22;58294;42.988;20.338;2023-12-04T14:38:25;102.90;1894.40